Hawarden, United Kingdom
Current Conditions -  °F | °C
As of 2:50 PM on Friday 19 Dec 2014 (Local Time) from EGNR Reporting Station
Rain Showers Rain Showers  
Wind Chill: 42°   Ceiling: Unl
Heat Index: 48°   Visibility: 6mi
Dew Point: 36°   Wind: 16mph
Humidity: 62%   Direction: 280°W
Pressure: 30"   Gusts: NA
Location:  53.18°N, 3.03°W
Report Text: EGNR 191450Z 28014KT 9999 VCSH SCT025 09/02 Q1016
Loading
Personal Weather Stations






























Interactive Weather Map New forecast layout! Learn more

10-Day Weather Forecast

Advertisements
Track Severe Weather on mobile